Time;durP1;ratioP1;P1;durP2;ratioP2;P2;SDS_P1;SDS_P2;PMS_P1;PMS_P2;Temp;Humidity;BMP_temperature;BMP_pressure;BME280_temperature;BME280_humidity;BME280_pressure;Samples;Min_cycle;Max_cycle;Signal;HPM_P1;HPM_P2
2022/04/26 03:37:33;;;;;;;;;33.00;28.00;;;;;14.43;54.42;98488.16;6319669;27;96987;-72
2022/04/26 03:40:37;;;;;;;;;34.33;29.33;;;;;14.49;54.43;98484.44;6320518;27;98915;-70
2022/04/26 03:43:40;;;;;;;;;34.50;30.00;;;;;14.49;54.19;98487.16;6315693;27;97484;-71
2022/04/26 03:46:44;;;;;;;;;36.20;30.80;;;;;14.51;54.35;98484.19;6324470;27;97527;-72
2022/04/26 03:49:48;;;;;;;;;34.00;28.60;;;;;14.51;54.03;98495.88;6317585;27;97106;-72
2022/04/26 03:52:53;;;;;;;;;31.50;27.00;;;;;14.50;54.17;98493.41;6308939;27;99597;-73
2022/04/26 03:55:57;;;;;;;;;34.00;29.20;;;;;14.50;54.28;98499.66;6331859;27;96764;-71
2022/04/26 03:59:00;;;;;;;;;30.00;28.00;;;;;14.57;54.16;98500.25;6316680;27;98141;-72
2022/04/26 04:02:04;;;;;;;;;31.00;26.80;;;;;14.59;53.97;98508.97;6307878;27;98127;-72
2022/04/26 04:05:08;;;;;;;;;31.50;26.00;;;;;14.55;54.00;98515.97;6318009;27;97423;-70
2022/04/26 04:08:13;;;;;;;;;29.00;25.00;;;;;14.55;53.85;98524.13;6319455;27;96588;-70
2022/04/26 04:11:16;;;;;;;;;32.50;26.00;;;;;14.51;54.12;98523.00;6330271;27;97533;-73
2022/04/26 04:14:20;;;;;;;;;33.80;27.60;;;;;14.56;54.15;98524.94;6306629;27;99665;-71
2022/04/26 04:17:23;;;;;;;;;33.20;28.60;;;;;14.54;54.18;98521.66;6333725;27;96714;-70
2022/04/26 04:20:29;;;;;;;;;32.60;27.20;;;;;14.50;54.36;98525.94;6300566;27;98622;-73
2022/04/26 04:23:36;;;;;;;;;29.80;28.40;;;;;14.54;54.40;98535.22;6325218;27;97461;-70
2022/04/26 04:26:39;;;;;;;;;32.60;26.80;;;;;14.47;54.13;98534.56;6331533;27;96426;-70
2022/04/26 04:29:44;;;;;;;;;35.20;28.20;;;;;14.52;54.13;98543.59;6336886;27;97276;-72
2022/04/26 04:32:47;;;;;;;;;30.50;26.00;;;;;14.51;54.15;98539.28;6329782;27;96541;-70
2022/04/26 04:35:50;;;;;;;;;31.00;26.25;;;;;14.52;54.07;98540.88;6322365;27;97433;-73
2022/04/26 04:38:55;;;;;;;;;31.00;27.40;;;;;14.50;53.88;98540.34;6316476;27;96590;-71
2022/04/26 04:41:59;;;;;;;;;30.60;25.00;;;;;14.60;53.86;98547.75;6332885;27;97458;-70
2022/04/26 04:45:03;;;;;;;;;33.00;27.00;;;;;14.55;54.04;98553.94;6329294;27;96529;-72
2022/04/26 04:48:07;;;;;;;;;30.00;25.00;;;;;14.54;53.90;98554.19;6313486;27;98403;-72
2022/04/26 04:51:10;;;;;;;;;34.00;29.00;;;;;14.51;53.81;98555.53;6335966;27;97503;-72
2022/04/26 04:54:15;;;;;;;;;29.60;24.00;;;;;14.58;53.90;98558.03;6336102;27;97145;-72
2022/04/26 04:57:18;;;;;;;;;31.50;24.00;;;;;14.63;53.64;98564.34;6334665;27;96703;-72
2022/04/26 05:00:22;;;;;;;;;23.60;22.60;;;;;14.69;53.37;98570.63;6331942;27;96566;-70
2022/04/26 05:03:25;;;;;;;;;25.00;22.60;;;;;14.63;53.35;98569.75;6335962;27;97474;-73
2022/04/26 05:06:28;;;;;;;;;27.75;22.75;;;;;14.67;53.21;98576.31;6318844;27;97209;-70
2022/04/26 05:09:37;;;;;;;;;26.20;23.80;;;;;14.64;53.35;98574.13;6330560;27;96480;-72
2022/04/26 05:12:40;;;;;;;;;26.50;23.00;;;;;14.72;53.13;98572.81;6290084;27;98814;-71
2022/04/26 05:15:44;;;;;;;;;27.00;24.00;;;;;14.60;53.15;98564.84;6331929;27;96927;-72
2022/04/26 05:18:48;;;;;;;;;24.60;20.60;;;;;14.80;52.99;98582.41;6295160;27;98892;-72
2022/04/26 05:21:52;;;;;;;;;27.25;22.25;;;;;14.86;52.92;98589.50;6313263;27;97228;-72
2022/04/26 05:24:56;;;;;;;;;26.00;21.20;;;;;14.71;52.62;98552.19;6312484;27;99519;-72
2022/04/26 05:28:00;;;;;;;;;28.50;23.00;;;;;14.93;52.84;98596.38;6315498;27;97324;-70
2022/04/26 05:31:04;;;;;;;;;31.00;25.40;;;;;14.99;52.88;98599.97;6292842;27;98080;-68
2022/04/26 05:34:08;;;;;;;;;24.60;22.60;;;;;15.08;53.11;98606.56;6336658;27;97892;-70
2022/04/26 05:37:11;;;;;;;;;23.75;20.00;;;;;15.14;53.67;98605.56;6337411;27;97157;-69
2022/04/26 05:40:17;;;;;;;;;26.00;22.00;;;;;15.20;52.55;98612.66;6314445;27;96850;-71
2022/04/26 05:43:20;;;;;;;;;25.00;22.00;;;;;15.15;52.29;98620.75;6317188;27;99500;-73
2022/04/26 05:46:23;;;;;;;;;25.00;22.00;;;;;15.20;52.24;98612.66;6338089;27;96489;-70
2022/04/26 05:49:27;;;;;;;;;28.00;23.00;;;;;15.25;52.50;98622.75;6303522;27;97695;-71
2022/04/26 05:52:30;;;;;;;;;26.00;22.00;;;;;15.31;51.99;98624.41;6321009;27;96855;-71
2022/04/26 05:55:35;;;;;;;;;23.00;21.00;;;;;15.35;51.73;98626.34;6315243;27;96817;-70
2022/04/26 05:58:38;;;;;;;;;25.00;20.50;;;;;15.42;51.87;98629.69;6323876;27;96419;-71
2022/04/26 06:01:41;;;;;;;;;23.00;19.80;;;;;15.36;51.12;98632.63;6302798;27;98095;-72
2022/04/26 06:04:45;;;;;;;;;27.40;23.40;;;;;15.43;51.00;98634.06;6303023;27;99873;-72
2022/04/26 06:07:49;;;;;;;;;21.50;19.25;;;;;15.43;51.05;98635.94;6314008;27;96773;-72
2022/04/26 06:10:54;;;;;;;;;27.00;20.40;;;;;15.42;50.95;98642.44;6339656;27;97005;-68
2022/04/26 06:13:57;;;;;;;;;27.00;22.00;;;;;15.36;50.93;98643.47;6321321;27;97384;-70
2022/04/26 06:17:00;;;;;;;;;30.40;24.20;;;;;15.40;50.94;98647.31;6335348;27;96838;-72
2022/04/26 06:20:04;;;;;;;;;31.00;25.20;;;;;15.31;50.84;98643.44;6333401;27;97872;-69
2022/04/26 06:23:09;;;;;;;;;30.60;24.60;;;;;15.32;51.07;98648.63;6331585;27;96631;-71
2022/04/26 06:26:14;;;;;;;;;31.00;27.60;;;;;15.37;51.13;98647.84;6333226;27;96840;-71
2022/04/26 06:29:18;;;;;;;;;33.50;28.00;;;;;15.47;51.06;98645.22;6335604;27;97137;-69
2022/04/26 06:32:21;;;;;;;;;27.40;26.40;;;;;15.57;50.80;98646.16;6325550;27;97322;-67
2022/04/26 06:35:25;;;;;;;;;34.60;26.40;;;;;15.69;50.45;98651.38;6289492;27;97797;-74
2022/04/26 06:38:29;;;;;;;;;38.40;29.60;;;;;15.73;50.03;98654.44;6319419;27;98529;-68
2022/04/26 06:41:34;;;;;;;;;33.00;28.20;;;;;15.67;49.74;98648.13;6305931;27;97130;-68
2022/04/26 06:44:38;;;;;;;;;32.00;28.40;;;;;15.49;49.74;98621.34;6316030;27;97837;-68
2022/04/26 06:47:43;;;;;;;;;31.67;28.67;;;;;15.71;49.72;98653.84;6313832;27;99572;-73
2022/04/26 06:50:46;;;;;;;;;34.00;30.00;;;;;15.69;49.45;98651.38;6311158;27;98548;-69
2022/04/26 06:53:49;;;;;;;;;36.00;30.00;;;;;15.67;49.70;98658.19;6334836;27;97454;-69
2022/04/26 06:56:54;;;;;;;;;35.40;30.00;;;;;15.77;49.50;98653.63;6320713;27;96548;-69
2022/04/26 06:59:58;;;;;;;;;35.00;29.20;;;;;15.84;49.45;98656.13;6317730;27;97486;-71
2022/04/26 07:03:01;;;;;;;;;42.25;31.00;;;;;15.95;49.39;98655.13;6328104;27;97414;-71
2022/04/26 07:06:05;;;;;;;;;34.50;30.00;;;;;15.94;48.80;98665.16;6336352;27;96646;-72
2022/04/26 07:09:08;;;;;;;;;34.20;30.00;;;;;16.13;48.32;98664.72;6332398;27;96880;-73
2022/04/26 07:12:12;;;;;;;;;35.25;28.00;;;;;16.20;48.49;98668.88;6311467;27;97142;-72
2022/04/26 07:15:16;;;;;;;;;38.00;30.00;;;;;16.18;48.19;98668.31;6312131;27;96787;-72
2022/04/26 07:18:19;;;;;;;;;32.25;27.50;;;;;16.25;49.98;98668.91;6306459;27;97730;-69
2022/04/26 07:21:23;;;;;;;;;36.40;30.00;;;;;16.39;49.51;98669.25;6329384;27;97407;-68
2022/04/26 07:24:40;;;;;;;;;39.40;30.00;;;;;16.47;48.60;98674.16;6318786;27;97552;-70
2022/04/26 07:27:45;;;;;;;;;38.80;31.00;;;;;16.58;47.64;98677.75;6301609;27;96785;-68
2022/04/26 07:30:48;;;;;;;;;42.40;33.60;;;;;16.74;47.39;98679.50;6336035;27;97499;-69
2022/04/26 07:37:12;;;;;;;;;33.80;29.80;;;;;16.81;46.74;98669.19;6335460;27;97380;-68
2022/04/26 07:40:19;;;;;;;;;40.00;30.00;;;;;16.98;46.44;98690.75;6334992;27;96673;-71
2022/04/26 07:43:23;;;;;;;;;36.80;30.00;;;;;16.95;45.89;98686.66;6325927;27;98036;-72
2022/04/26 07:46:27;;;;;;;;;38.50;32.00;;;;;16.95;45.87;98691.28;6312064;27;97497;-73
2022/04/26 07:49:30;;;;;;;;;34.60;29.00;;;;;17.04;45.67;98700.56;6328344;27;98150;-73
2022/04/26 07:52:34;;;;;;;;;33.20;26.20;;;;;16.66;45.31;98672.69;6323535;27;97134;-73
2022/04/26 07:55:38;;;;;;;;;34.50;29.00;;;;;16.85;45.44;98694.81;6316718;27;96483;-72
2022/04/26 07:58:43;;;;;;;;;33.25;28.00;;;;;16.83;45.06;98692.34;6335215;27;97451;-68
2022/04/26 08:01:46;;;;;;;;;37.80;30.00;;;;;16.89;45.25;98695.91;6333843;27;97182;-73
2022/04/26 08:04:50;;;;;;;;;35.40;30.00;;;;;17.10;44.88;98688.63;6314710;27;97400;-71
2022/04/26 08:07:53;;;;;;;;;35.00;30.00;;;;;17.30;44.96;98684.00;6336322;27;96742;-70
2022/04/26 08:11:00;;;;;;;;;32.40;28.00;;;;;17.51;43.96;98698.47;6287748;27;98348;-70
2022/04/26 08:14:04;;;;;;;;;30.00;25.50;;;;;17.69;43.46;98708.88;6333693;27;96619;-71
2022/04/26 08:17:08;;;;;;;;;33.40;29.40;;;;;17.91;43.29;98713.25;6336815;27;98856;-71
2022/04/26 08:20:11;;;;;;;;;28.40;25.40;;;;;18.06;42.38;98715.97;6332838;27;96400;-70
2022/04/26 08:23:15;;;;;;;;;24.80;22.00;;;;;18.13;42.18;98720.03;6317893;27;97561;-71
2022/04/26 08:29:41;;;;;;;;;31.40;26.00;;;;;18.48;41.93;98718.34;6315690;27;99706;-71
2022/04/26 08:32:46;;;;;;;;;29.80;24.40;;;;;18.73;41.49;98723.75;6318019;27;96791;-73
2022/04/26 08:35:50;;;;;;;;;26.00;22.00;;;;;19.02;41.09;98729.38;6335609;27;96597;-70
2022/04/26 08:39:08;;;;;;;;;24.00;21.00;;;;;19.30;40.02;98725.16;6334927;27;96473;-74
2022/04/26 08:42:12;;;;;;;;;28.20;23.80;;;;;19.33;38.93;98730.06;6331974;27;97036;-72
2022/04/26 08:45:19;;;;;;;;;23.20;20.20;;;;;19.44;38.00;98723.47;6303375;27;98123;-69
2022/04/26 08:51:43;;;;;;;;;27.00;22.40;;;;;19.87;38.67;98722.59;6291682;27;98767;-70
2022/04/26 08:54:49;;;;;;;;;26.25;21.25;;;;;20.00;37.42;98715.63;6326961;27;96586;-73
2022/04/26 08:57:52;;;;;;;;;24.00;20.00;;;;;20.08;37.90;98733.38;6312908;27;96510;-71
2022/04/26 09:01:11;;;;;;;;;25.40;22.00;;;;;20.06;37.34;98719.16;6317801;27;98731;-71
2022/04/26 09:04:17;;;;;;;;;28.00;24.00;;;;;20.09;37.34;98726.78;6326858;27;97472;-72
2022/04/26 09:07:31;;;;;;;;;23.00;20.00;;;;;20.27;36.75;98718.69;6323558;27;98043;-73
2022/04/26 09:10:35;;;;;;;;;23.00;21.00;;;;;20.49;36.60;98714.66;6311273;27;97232;-70
2022/04/26 09:13:41;;;;;;;;;25.20;21.60;;;;;20.51;36.34;98707.78;6304418;27;96671;-72
2022/04/26 09:16:45;;;;;;;;;22.40;19.40;;;;;20.83;36.38;98728.22;6315539;27;98451;-71
2022/04/26 09:19:50;;;;;;;;;24.60;22.00;;;;;20.91;35.98;98733.09;6320462;27;98192;-71
2022/04/26 09:22:59;;;;;;;;;17.00;16.00;;;;;20.93;34.89;98707.00;6312323;27;96995;-70
2022/04/26 09:26:08;;;;;;;;;24.00;19.60;;;;;21.06;34.52;98732.91;6336998;27;97393;-71
2022/04/26 09:29:19;;;;;;;;;20.00;17.00;;;;;20.98;34.20;98722.56;6306980;27;98399;-74
2022/04/26 09:32:24;;;;;;;;;19.00;17.50;;;;;20.93;34.10;98717.16;6311531;27;96664;-74
2022/04/26 09:35:29;;;;;;;;;22.00;20.00;;;;;20.93;34.16;98736.34;6320866;27;96731;-70
2022/04/26 09:38:33;;;;;;;;;19.00;16.00;;;;;20.59;34.55;98741.94;6308253;27;98590;-71
2022/04/26 09:41:37;;;;;;;;;20.40;19.40;;;;;20.30;35.66;98736.44;6336202;27;96786;-73
2022/04/26 09:44:42;;;;;;;;;21.20;20.00;;;;;20.03;35.86;98727.94;6332495;27;97436;-69
2022/04/26 09:47:47;;;;;;;;;22.40;20.00;;;;;19.82;36.80;98730.84;6313922;27;97391;-74
2022/04/26 09:50:50;;;;;;;;;23.00;20.00;;;;;19.69;36.74;98727.94;6329137;27;97510;-68
2022/04/26 09:53:54;;;;;;;;;20.40;19.40;;;;;19.61;36.82;98732.09;6334458;27;96528;-74
2022/04/26 09:56:58;;;;;;;;;20.50;19.50;;;;;19.65;37.66;98727.69;6309577;27;96585;-68
2022/04/26 10:00:04;;;;;;;;;28.00;24.00;;;;;19.51;37.10;98732.16;6331410;27;97457;-70
2022/04/26 10:03:16;;;;;;;;;24.25;20.00;;;;;19.46;37.71;98743.13;6314181;27;96521;-73
2022/04/26 10:06:23;;;;;;;;;21.75;20.00;;;;;19.35;37.21;98734.13;6327968;27;97506;-70
2022/04/26 10:09:27;;;;;;;;;22.40;20.00;;;;;19.41;37.75;98738.47;6293078;27;97924;-69
2022/04/26 10:12:32;;;;;;;;;23.00;19.50;;;;;19.47;37.25;98733.81;6321599;27;97478;-69
2022/04/26 10:15:36;;;;;;;;;22.25;20.00;;;;;19.41;36.90;98738.47;6341179;27;96573;-68
2022/04/26 10:18:43;;;;;;;;;20.33;19.00;;;;;19.51;40.33;98745.00;6335998;27;97452;-69
2022/04/26 10:21:49;;;;;;;;;19.00;17.00;;;;;19.65;38.19;98740.53;6335201;27;96742;-67
2022/04/26 10:25:12;;;;;;;;;22.00;20.00;;;;;19.73;36.62;98737.22;6332321;27;96513;-68
2022/04/26 10:28:23;;;;;;;;;25.67;23.67;;;;;19.74;36.59;98736.13;6336331;27;97337;-72
2022/04/26 10:31:36;;;;;;;;;22.00;20.00;;;;;19.72;36.48;98735.56;6332065;27;97829;-69
2022/04/26 10:34:42;;;;;;;;;20.20;19.00;;;;;19.79;36.09;98733.34;6311140;27;99381;-69
2022/04/26 10:37:45;;;;;;;;;21.60;19.00;;;;;19.81;36.30;98731.94;6321696;27;97414;-71
2022/04/26 10:41:10;;;;;;;;;24.60;21.00;;;;;19.81;36.42;98725.66;6333815;27;97172;-68
2022/04/26 10:44:27;;;;;;;;;22.00;19.60;;;;;20.01;36.56;98733.69;6336257;27;97658;-71
2022/04/26 10:47:31;;;;;;;;;25.00;22.00;;;;;19.98;36.55;98736.19;6317923;27;97003;-68
2022/04/26 10:50:36;;;;;;;;;21.00;19.25;;;;;19.68;36.77;98724.38;6293790;27;96658;-69
2022/04/26 10:53:45;;;;;;;;;24.50;21.00;;;;;19.81;37.17;98740.16;6335935;27;96758;-68
2022/04/26 10:56:49;;;;;;;;;24.00;20.00;;;;;19.66;37.21;98742.16;6318650;27;96991;-68
2022/04/26 10:59:56;;;;;;;;;20.80;18.00;;;;;19.67;37.54;98736.44;6334249;27;97130;-68
2022/04/26 11:03:02;;;;;;;;;22.00;20.80;;;;;19.70;37.25;98737.75;6316849;27;97114;-68
2022/04/26 11:06:07;;;;;;;;;24.50;22.50;;;;;19.55;37.98;98733.22;6331311;27;96649;-71
2022/04/26 11:09:14;;;;;;;;;25.00;22.60;;;;;19.57;38.17;98736.50;6327733;27;96959;-72
2022/04/26 11:12:17;;;;;;;;;24.00;21.00;;;;;19.64;37.28;98747.94;6332037;27;97414;-73
2022/04/26 11:15:23;;;;;;;;;25.75;22.25;;;;;19.70;37.59;98745.97;6333029;27;96707;-69
2022/04/26 11:18:26;;;;;;;;;26.20;22.40;;;;;19.71;37.55;98742.13;6334756;27;97443;-73
2022/04/26 11:21:33;;;;;;;;;22.00;20.00;;;;;19.73;36.61;98740.75;6316641;27;98199;-68
2022/04/26 11:28:10;;;;;;;;;25.40;21.40;;;;;19.92;36.08;98760.03;6326235;27;96831;-70
2022/04/26 11:31:13;;;;;;;;;22.00;18.40;;;;;19.95;35.92;98750.44;6325036;27;96913;-71
2022/04/26 11:34:16;;;;;;;;;23.00;20.00;;;;;19.94;36.14;98754.28;6323651;27;97424;-70
2022/04/26 11:37:21;;;;;;;;;18.00;16.00;;;;;19.93;34.69;98755.38;6285886;27;99616;-72
2022/04/26 11:40:27;;;;;;;;;20.75;19.75;;;;;19.92;35.47;98756.50;6324750;27;96779;-71
2022/04/26 11:43:33;;;;;;;;;16.00;15.00;;;;;19.88;35.11;98778.13;6322870;27;96587;-72
2022/04/26 11:46:36;;;;;;;;;20.80;17.00;;;;;19.98;35.58;98766.28;6330376;27;96636;-71
2022/04/26 11:49:40;;;;;;;;;15.00;14.00;;;;;19.90;35.31;98754.84;6322528;27;96960;-72
2022/04/26 11:52:45;;;;;;;;;19.60;17.00;;;;;20.05;35.08;98764.84;6314914;27;97125;-72
2022/04/26 11:55:53;;;;;;;;;18.60;16.60;;;;;20.10;35.30;98762.06;6327481;27;97707;-71
2022/04/26 11:58:57;;;;;;;;;16.60;15.60;;;;;20.08;35.13;98769.78;6316545;27;97489;-70
2022/04/26 12:02:00;;;;;;;;;17.00;15.00;;;;;19.98;34.07;98747.16;6316750;27;97211;-69
2022/04/26 12:05:04;;;;;;;;;15.00;13.00;;;;;20.20;34.47;98763.91;6314300;27;98057;-70
2022/04/26 12:08:15;;;;;;;;;16.20;14.80;;;;;20.13;33.70;98758.78;6312512;27;96709;-69
2022/04/26 12:11:20;;;;;;;;;15.00;13.00;;;;;20.10;33.85;98769.47;6312905;27;97605;-71
2022/04/26 12:14:24;;;;;;;;;15.00;13.60;;;;;20.12;33.68;98764.53;6316831;27;97744;-67
2022/04/26 12:17:29;;;;;;;;;16.20;14.00;;;;;20.16;33.72;98763.66;6312702;27;97507;-71
2022/04/26 12:20:35;;;;;;;;;15.00;13.20;;;;;20.29;34.11;98762.19;6309374;27;99228;-74
2022/04/26 12:23:40;;;;;;;;;18.00;16.00;;;;;20.20;34.42;98763.91;6282684;27;96811;-73
2022/04/26 12:26:51;;;;;;;;;15.20;14.20;;;;;20.29;35.29;98763.00;6324978;27;98193;-70
2022/04/26 12:29:54;;;;;;;;;14.00;13.00;;;;;20.36;34.70;98765.44;6305018;27;100268;-70
2022/04/26 12:32:58;;;;;;;;;19.50;17.00;;;;;20.37;34.16;98764.34;6306027;27;97650;-73
2022/04/26 12:36:03;;;;;;;;;20.40;17.00;;;;;20.33;34.06;98765.22;6315859;27;98401;-75
2022/04/26 12:39:08;;;;;;;;;19.60;16.00;;;;;20.48;34.05;98765.03;6331630;27;97562;-70
2022/04/26 12:42:14;;;;;;;;;18.00;16.00;;;;;20.46;34.21;98765.34;6326224;27;97272;-71
2022/04/26 12:45:21;;;;;;;;;19.20;17.60;;;;;20.42;34.40;98767.03;6307448;27;99532;-70
2022/04/26 12:51:54;;;;;;;;;18.00;15.75;;;;;20.57;35.11;98766.06;6334965;27;97430;-74
2022/04/26 12:54:59;;;;;;;;;20.60;17.40;;;;;20.53;34.75;98763.06;6318656;27;97269;-70
2022/04/26 12:58:04;;;;;;;;;22.00;19.00;;;;;20.53;35.33;98763.06;6310690;27;98229;-71
2022/04/26 13:01:08;;;;;;;;;22.00;18.00;;;;;20.43;34.90;98745.94;6317029;27;97917;-72
2022/04/26 13:04:12;;;;;;;;;20.00;16.20;;;;;20.41;35.43;98757.19;6334657;27;98246;-73
2022/04/26 13:07:15;;;;;;;;;21.60;18.60;;;;;20.22;35.12;98742.56;6324622;27;97432;-76
2022/04/26 13:10:22;;;;;;;;;21.00;19.00;;;;;20.15;35.67;98759.31;6301447;27;99764;-71
2022/04/26 13:13:27;;;;;;;;;20.00;19.00;;;;;20.02;36.36;98759.97;6324239;27;96984;-75
2022/04/26 13:16:30;;;;;;;;;22.00;19.80;;;;;20.00;36.81;98761.34;6327650;27;97446;-70
2022/04/26 13:19:33;;;;;;;;;22.80;18.00;;;;;19.95;36.14;98766.84;6332598;27;97566;-74
2022/04/26 13:22:37;;;;;;;;;23.00;20.40;;;;;19.95;36.09;98764.94;6332705;27;97993;-73
2022/04/26 13:25:43;;;;;;;;;23.00;20.00;;;;;19.93;36.46;98760.88;6303486;27;99619;-72
2022/04/26 13:28:46;;;;;;;;;19.00;17.50;;;;;20.06;36.68;98760.19;6311640;27;96728;-73
2022/04/26 13:31:50;;;;;;;;;22.40;20.40;;;;;20.18;36.30;98768.88;6331013;27;96815;-71
2022/04/26 13:34:53;;;;;;;;;20.00;19.00;;;;;20.22;36.30;98758.97;6332070;27;96793;-74
2022/04/26 13:38:01;;;;;;;;;21.00;19.00;;;;;20.35;36.81;98763.81;6333308;27;98593;-71
2022/04/26 13:41:06;;;;;;;;;26.00;20.60;;;;;20.45;36.42;98771.09;6324994;27;96812;-74
2022/04/26 13:44:09;;;;;;;;;25.40;21.00;;;;;20.56;36.14;98768.00;6315089;27;98611;-70
2022/04/26 13:47:13;;;;;;;;;20.60;19.40;;;;;20.66;36.03;98773.38;6329989;27;97724;-71
2022/04/26 13:50:17;;;;;;;;;22.00;18.80;;;;;20.73;36.06;98773.81;6317167;27;97416;-75
2022/04/26 13:53:23;;;;;;;;;23.00;20.00;;;;;20.69;35.59;98763.72;6334778;27;96693;-72
2022/04/26 13:56:28;;;;;;;;;26.40;23.40;;;;;20.80;35.89;98769.94;6334850;27;97557;-72
2022/04/26 13:59:31;;;;;;;;;23.50;20.50;;;;;20.70;35.48;98774.41;6329839;27;97014;-76
2022/04/26 14:02:39;;;;;;;;;23.00;19.00;;;;;20.78;35.27;98772.94;6310077;27;98527;-73
2022/04/26 14:05:44;;;;;;;;;23.00;19.80;;;;;20.83;35.09;98769.31;6296678;27;97916;-73
2022/04/26 14:08:48;;;;;;;;;24.00;19.00;;;;;20.82;34.89;98768.50;6314248;27;99778;-74
2022/04/26 14:11:55;;;;;;;;;24.00;19.40;;;;;20.80;34.25;98767.19;6316510;27;97446;-71
2022/04/26 14:21:49;;;;;;;;;20.00;17.40;;;;;20.77;34.48;98769.38;6300444;27;97825;-72
2022/04/26 14:24:53;;;;;;;;;22.80;20.00;;;;;20.69;34.71;98772.78;6314016;27;97704;-73
2022/04/26 14:28:00;;;;;;;;;24.20;19.60;;;;;20.69;34.66;98777.44;6334807;27;98063;-75
2022/04/26 14:31:03;;;;;;;;;22.00;20.20;;;;;20.53;35.03;98757.59;6295292;27;97336;-74
2022/04/26 14:34:07;;;;;;;;;22.00;21.00;;;;;20.53;34.73;98765.81;6335581;27;97764;-75
2022/04/26 14:37:12;;;;;;;;;18.50;17.00;;;;;20.50;34.79;98777.34;6318341;27;98044;-74
2022/04/26 14:40:15;;;;;;;;;19.60;16.60;;;;;20.43;34.68;98774.13;6308232;27;97006;-74
2022/04/26 14:43:20;;;;;;;;;20.50;19.50;;;;;20.37;35.20;98778.03;6307121;27;96799;-72
2022/04/26 14:46:23;;;;;;;;;18.00;17.00;;;;;20.29;35.08;98776.69;6298326;27;98119;-77
2022/04/26 14:49:26;;;;;;;;;22.00;18.00;;;;;20.23;34.62;98779.78;6313617;27;97432;-76
2022/04/26 14:52:30;;;;;;;;;17.00;14.20;;;;;20.13;34.85;98777.94;6312958;27;96853;-68
2022/04/26 14:55:39;;;;;;;;;19.00;17.00;;;;;19.93;35.30;98774.53;6323745;27;98081;-70
2022/04/26 14:58:44;;;;;;;;;20.50;17.50;;;;;19.89;35.60;98774.28;6310784;27;98411;-71
2022/04/26 15:01:49;;;;;;;;;18.25;17.25;;;;;19.81;35.38;98777.63;6314175;27;97496;-70
2022/04/26 15:04:53;;;;;;;;;16.50;15.00;;;;;19.79;35.31;98774.38;6309949;27;96756;-75
2022/04/26 15:11:17;;;;;;;;;17.20;15.00;;;;;19.67;35.51;98773.91;6330189;27;96973;-74
2022/04/26 15:17:44;;;;;;;;;16.00;12.00;;;;;19.49;35.54;98767.19;6335749;27;97549;-73
2022/04/26 15:20:48;;;;;;;;;16.00;14.00;;;;;19.43;35.42;98769.09;6311048;27;98173;-73
2022/04/26 15:23:53;;;;;;;;;19.00;16.00;;;;;19.35;35.90;98771.59;6295360;27;96980;-72
2022/04/26 15:26:58;;;;;;;;;17.00;14.75;;;;;19.17;35.57;98774.94;6314862;27;97592;-73
2022/04/26 15:30:05;;;;;;;;;18.00;14.75;;;;;19.07;36.07;98773.06;6311552;27;98220;-73
2022/04/26 15:33:08;;;;;;;;;16.00;14.00;;;;;19.04;35.89;98782.66;6332324;27;96738;-73
2022/04/26 15:36:12;;;;;;;;;18.50;16.00;;;;;19.02;35.86;98786.75;6297098;27;98605;-72
2022/04/26 15:39:15;;;;;;;;;20.40;16.40;;;;;19.00;36.39;98787.06;6311685;27;98108;-72
2022/04/26 15:42:18;;;;;;;;;16.20;14.80;;;;;18.98;36.33;98789.25;6297426;27;99611;-72
2022/04/26 15:45:23;;;;;;;;;19.40;16.00;;;;;18.79;36.29;98779.19;6334116;27;97555;-72
2022/04/26 15:48:27;;;;;;;;;17.60;16.00;;;;;18.82;36.02;98784.09;6296320;27;100485;-73
2022/04/26 15:51:30;;;;;;;;;15.00;13.00;;;;;18.83;36.81;98781.09;6334546;27;97520;-74
2022/04/26 15:54:33;;;;;;;;;15.00;13.00;;;;;18.90;36.34;98795.28;6294005;27;97756;-74
2022/04/26 15:57:39;;;;;;;;;17.00;13.25;;;;;18.86;36.20;98785.19;6312271;27;97439;-74
2022/04/26 16:00:45;;;;;;;;;14.20;12.60;;;;;18.88;35.97;98788.44;6319425;27;97416;-75
2022/04/26 16:03:48;;;;;;;;;12.00;12.00;;;;;18.89;36.48;98795.56;6308352;27;98580;-72
2022/04/26 16:06:52;;;;;;;;;12.00;11.00;;;;;18.85;36.65;98792.56;6314936;27;97482;-72
2022/04/26 16:23:21;;;;;;;;;12.00;10.20;;;;;18.70;37.38;98800.81;6313894;27;98159;-74
2022/04/26 16:26:26;;;;;;;;;12.00;11.60;;;;;18.58;37.57;98792.06;6333256;27;97579;-74
2022/04/26 16:29:29;;;;;;;;;10.60;9.60;;;;;18.57;37.57;98795.88;6331867;27;97458;-73
2022/04/26 16:32:35;;;;;;;;;11.50;10.00;;;;;18.50;38.11;98804.34;6333048;27;96655;-73
2022/04/26 16:35:38;;;;;;;;;12.00;11.00;;;;;18.53;38.17;98802.97;6316839;27;96840;-73
2022/04/26 16:38:42;;;;;;;;;11.20;9.60;;;;;18.45;38.77;98803.53;6297653;27;96903;-74
2022/04/26 16:41:45;;;;;;;;;11.00;11.00;;;;;18.45;39.10;98803.53;6335959;27;96549;-74
2022/04/26 16:44:48;;;;;;;;;10.00;9.80;;;;;18.41;39.40;98803.28;6311034;27;96831;-74
2022/04/26 16:47:53;;;;;;;;;12.25;11.25;;;;;18.35;39.58;98807.09;6327061;27;97495;-73
2022/04/26 16:50:56;;;;;;;;;15.40;12.00;;;;;18.29;39.88;98812.81;6320615;27;96419;-73
2022/04/26 16:54:00;;;;;;;;;12.00;12.00;;;;;18.22;39.76;98812.28;6326946;27;96564;-75
2022/04/26 16:57:03;;;;;;;;;12.20;11.60;;;;;18.15;40.13;98807.09;6320222;27;97176;-74
2022/04/26 17:00:07;;;;;;;;;10.60;10.00;;;;;18.03;40.05;98804.63;6314151;27;97103;-74
2022/04/26 17:03:14;;;;;;;;;13.00;12.00;;;;;17.97;40.09;98803.00;6328043;27;96853;-73
2022/04/26 17:06:18;;;;;;;;;12.00;11.00;;;;;17.91;40.04;98812.25;6314896;27;98119;-74
2022/04/26 17:09:21;;;;;;;;;14.40;12.60;;;;;17.87;40.32;98815.81;6305571;27;96603;-74
2022/04/26 17:12:26;;;;;;;;;14.60;12.00;;;;;17.79;39.98;98819.88;6301145;27;98516;-74
2022/04/26 17:15:31;;;;;;;;;15.00;12.00;;;;;17.70;40.41;98824.22;6306348;27;100304;-73
2022/04/26 17:18:36;;;;;;;;;12.80;10.80;;;;;17.62;40.47;98813.84;6331481;27;97125;-73
2022/04/26 17:21:39;;;;;;;;;15.00;12.00;;;;;17.52;40.53;98821.97;6311910;27;97071;-74
2022/04/26 17:28:07;;;;;;;;;9.00;9.00;;;;;17.41;39.74;98826.56;6308545;27;99716;-73
2022/04/26 17:31:11;;;;;;;;;10.20;9.00;;;;;17.05;39.83;98806.53;6323338;27;97262;-73
2022/04/26 17:34:16;;;;;;;;;12.50;10.00;;;;;17.23;40.42;98835.22;6308322;27;99007;-73
2022/04/26 17:37:21;;;;;;;;;13.00;9.50;;;;;17.18;40.59;98846.91;6300156;27;98368;-72
2022/04/26 17:40:25;;;;;;;;;12.00;11.00;;;;;17.13;40.65;98844.16;6314897;27;97197;-73
2022/04/26 17:43:28;;;;;;;;;13.00;11.40;;;;;16.99;40.68;98837.56;6307987;27;99581;-72
2022/04/26 17:46:32;;;;;;;;;13.80;12.00;;;;;16.99;40.72;98844.91;6289382;27;96877;-72
2022/04/26 17:49:37;;;;;;;;;11.00;11.00;;;;;16.93;40.90;98852.22;6334362;27;96700;-72
2022/04/26 17:59:18;;;;;;;;;13.00;10.00;;;;;16.78;40.34;98866.56;6335475;27;96779;-72
2022/04/26 18:02:22;;;;;;;;;13.50;11.00;;;;;16.75;40.12;98872.53;6331786;27;97290;-72
2022/04/26 18:05:27;;;;;;;;;11.20;10.00;;;;;16.71;40.26;98878.78;6325162;27;97520;-73
2022/04/26 18:08:31;;;;;;;;;11.60;10.00;;;;;16.67;40.47;98877.63;6290066;27;99502;-73
2022/04/26 18:11:34;;;;;;;;;12.75;10.75;;;;;16.65;40.53;98883.34;6303755;27;97356;-72
2022/04/26 18:14:38;;;;;;;;;12.00;10.75;;;;;16.62;40.73;98885.75;6295163;27;98513;-73
2022/04/26 18:17:41;;;;;;;;;14.00;11.00;;;;;16.59;40.74;98897.16;6307661;27;98262;-72
2022/04/26 18:20:45;;;;;;;;;13.00;11.00;;;;;16.55;41.15;98891.41;6309708;27;100034;-72
2022/04/26 18:23:50;;;;;;;;;13.00;12.33;;;;;16.49;41.52;98889.72;6333263;27;97453;-72
2022/04/26 18:26:53;;;;;;;;;12.00;10.00;;;;;16.48;41.57;98896.22;6315235;27;98005;-74
2022/04/26 18:29:57;;;;;;;;;14.00;13.00;;;;;16.44;41.71;98900.56;6310604;27;97855;-73
2022/04/26 18:33:00;;;;;;;;;13.00;11.00;;;;;16.39;41.81;98903.22;6314071;27;98472;-74
2022/04/26 18:36:07;;;;;;;;;13.00;11.00;;;;;16.34;41.85;98893.13;6319768;27;97238;-74
2022/04/26 18:39:11;;;;;;;;;11.75;11.00;;;;;16.29;42.06;98911.31;6319110;27;97926;-71